createdAt,value
2018-08-04T00:02:27.036Z,16.33
2018-08-04T00:04:57.528Z,15.70
2018-08-04T00:07:28.053Z,15.43
2018-08-04T00:09:59.037Z,16.33
2018-08-04T00:12:29.471Z,15.60
2018-08-04T00:14:59.972Z,15.73
2018-08-04T00:17:30.938Z,16.50
2018-08-04T00:20:01.372Z,17.03
2018-08-04T00:22:32.553Z,16.63
2018-08-04T00:25:03.629Z,16.40
2018-08-04T00:27:34.793Z,16.37
2018-08-04T00:30:06.512Z,16.90
2018-08-04T00:32:37.696Z,18.70
2018-08-04T00:35:08.589Z,18.03
2018-08-04T00:37:39.911Z,17.20
2018-08-04T00:40:12.437Z,17.47
2018-08-04T00:42:43.598Z,17.10
2018-08-04T00:45:13.964Z,16.90
2018-08-04T00:47:44.508Z,17.50
2018-08-04T00:50:15.024Z,17.33
2018-08-04T00:52:45.636Z,17.93
2018-08-04T00:55:16.165Z,18.20
2018-08-04T00:57:47.260Z,17.27
2018-08-04T01:00:18.089Z,18.47
2018-08-04T01:02:48.754Z,17.80
2018-08-04T01:05:19.739Z,18.13
2018-08-04T01:07:50.392Z,19.57
2018-08-04T01:10:20.316Z,16.83
2018-08-04T01:12:50.748Z,16.63
2018-08-04T01:15:21.270Z,17.33
2018-08-04T01:17:51.802Z,17.73
2018-08-04T01:20:22.358Z,19.47
2018-08-04T01:22:52.876Z,16.67
2018-08-04T01:25:23.992Z,17.00
2018-08-04T01:27:54.533Z,18.13
2018-08-04T01:30:25.365Z,17.23
2018-08-04T01:32:55.864Z,17.20
2018-08-04T01:35:26.856Z,15.73
2018-08-04T01:37:57.285Z,18.53
2018-08-04T01:40:28.177Z,15.10
2018-08-04T01:42:58.737Z,15.53
2018-08-04T01:45:29.836Z,15.27
2018-08-04T01:48:00.705Z,14.10
2018-08-04T01:50:31.666Z,13.63
2018-08-04T01:53:02.126Z,13.47
2018-08-04T01:55:32.872Z,13.70
2018-08-04T01:58:03.489Z,15.10
2018-08-04T02:00:33.636Z,13.37
2018-08-04T02:03:04.560Z,12.23
2018-08-04T02:05:34.976Z,14.33
2018-08-04T02:08:06.430Z,12.10
2018-08-04T02:10:37.251Z,15.43
2018-08-04T02:13:07.909Z,11.40
2018-08-04T02:15:39.263Z,12.57
2018-08-04T02:18:10.424Z,13.40
2018-08-04T02:20:40.924Z,14.37
2018-08-04T02:23:11.775Z,12.10
2018-08-04T02:25:42.308Z,13.80
2018-08-04T02:28:12.913Z,13.37
2018-08-04T02:30:43.349Z,14.57
2018-08-04T02:33:14.264Z,13.20
2018-08-04T02:35:44.698Z,12.17
2018-08-04T02:38:15.978Z,14.57
2018-08-04T02:40:46.235Z,12.43
2018-08-04T02:43:16.656Z,13.80
2018-08-04T02:45:47.472Z,15.40
2018-08-04T02:48:18.684Z,12.10
2018-08-04T02:50:49.185Z,13.23
2018-08-04T02:53:19.741Z,14.50
2018-08-04T02:55:50.540Z,12.87
2018-08-04T02:58:21.076Z,14.33
2018-08-04T03:00:51.605Z,13.53
2018-08-04T03:03:22.683Z,14.30
2018-08-04T03:05:53.344Z,13.83
2018-08-04T03:08:23.597Z,16.17
2018-08-04T03:10:54.579Z,14.83
2018-08-04T03:13:25.477Z,14.73
2018-08-04T03:15:55.957Z,13.83
2018-08-04T03:18:26.957Z,14.47
2018-08-04T03:20:58.204Z,13.10
2018-08-04T03:23:28.804Z,12.53
2018-08-04T03:25:59.792Z,14.93
2018-08-04T03:28:30.252Z,11.67
2018-08-04T03:31:01.369Z,12.57
2018-08-04T03:33:31.940Z,11.43
2018-08-04T03:36:02.792Z,12.90
2018-08-04T03:38:33.701Z,8.30
2018-08-04T03:41:04.161Z,13.87
2018-08-04T03:43:34.684Z,9.57
2018-08-04T03:46:05.281Z,11.93
2018-08-04T03:48:36.013Z,8.53
2018-08-04T03:51:06.705Z,12.00
2018-08-04T03:53:37.420Z,7.67
2018-08-04T03:56:07.949Z,7.37
2018-08-04T03:58:38.796Z,8.47
2018-08-04T04:01:09.268Z,9.90
2018-08-04T04:03:39.800Z,8.37
2018-08-04T04:06:10.545Z,10.70
2018-08-04T04:08:41.548Z,9.60
2018-08-04T04:11:11.985Z,7.97
2018-08-04T04:13:42.523Z,11.80
2018-08-04T04:16:13.109Z,9.10
2018-08-04T04:18:44.253Z,8.30
2018-08-04T04:21:15.023Z,7.30
2018-08-04T04:23:45.802Z,7.80
2018-08-04T04:26:15.865Z,9.87
2018-08-04T04:28:46.758Z,12.30
2018-08-04T04:31:17.163Z,9.93
2018-08-04T04:33:48.123Z,9.77
2018-08-04T04:36:18.536Z,8.70
2018-08-04T04:38:49.652Z,9.47
2018-08-04T04:41:20.200Z,9.57
2018-08-04T04:43:50.776Z,9.37
2018-08-04T04:46:21.688Z,11.57
2018-08-04T04:48:52.117Z,12.80
2018-08-04T04:51:23.227Z,9.20
2018-08-04T04:53:54.368Z,9.10
2018-08-04T04:56:24.953Z,8.63
2018-08-04T04:58:55.808Z,8.83
2018-08-04T05:01:26.585Z,9.63
2018-08-04T05:03:58.000Z,7.93
2018-08-04T05:06:28.633Z,8.77
2018-08-04T05:08:59.748Z,8.50
2018-08-04T05:11:30.615Z,8.20
2018-08-04T05:14:01.445Z,14.73
2018-08-04T05:16:31.859Z,9.83
2018-08-04T05:19:02.193Z,8.73
2018-08-04T05:21:33.010Z,9.63
2018-08-04T05:24:04.469Z,7.03
2018-08-04T05:26:34.977Z,7.27
2018-08-04T05:29:05.509Z,9.33
2018-08-04T05:31:35.980Z,7.70
2018-08-04T05:34:06.165Z,9.60
2018-08-04T05:36:36.812Z,7.97
2018-08-04T05:39:10.474Z,9.37
2018-08-04T05:41:41.155Z,9.50
2018-08-04T05:44:11.734Z,11.20
2018-08-04T05:46:42.241Z,7.10
2018-08-04T05:49:13.157Z,7.63
2018-08-04T05:51:43.590Z,9.53
2018-08-04T05:54:14.764Z,15.63
2018-08-04T05:56:45.236Z,10.03
2018-08-04T05:59:16.105Z,9.80
2018-08-04T06:01:47.289Z,10.70
2018-08-04T06:04:17.840Z,7.73
2018-08-04T06:06:48.603Z,10.23
2018-08-04T06:09:19.211Z,8.30
2018-08-04T06:11:49.925Z,10.13
2018-08-04T06:14:20.904Z,9.73
2018-08-04T06:16:51.332Z,10.20
2018-08-04T06:19:21.904Z,12.07
2018-08-04T06:21:52.668Z,9.27
2018-08-04T06:42:33.763Z,11.57
2018-08-04T06:45:07.655Z,13.13
2018-08-04T06:50:41.267Z,10.93
2018-08-04T06:53:11.454Z,9.90
2018-08-04T06:55:41.671Z,11.47
2018-08-04T06:58:11.822Z,9.80
2018-08-04T07:00:42.017Z,12.57
2018-08-04T07:03:12.132Z,12.67
2018-08-04T07:05:42.684Z,12.50
2018-08-04T07:08:12.770Z,13.20
2018-08-04T07:10:44.310Z,11.63
2018-08-04T07:13:14.405Z,10.47
2018-08-04T07:15:44.500Z,15.33
2018-08-04T07:18:14.592Z,10.40
2018-08-04T07:20:44.684Z,11.27
2018-08-04T07:23:14.845Z,11.83
2018-08-04T07:25:44.984Z,13.37
2018-08-04T07:28:15.066Z,12.70
2018-08-04T07:30:45.246Z,14.13
2018-08-04T07:33:15.399Z,8.40
2018-08-04T07:35:45.547Z,11.13
2018-08-04T07:38:30.204Z,9.07
2018-08-04T07:41:00.352Z,12.40
2018-08-04T07:43:30.489Z,8.90
2018-08-04T07:46:00.608Z,8.57
2018-08-04T07:48:30.876Z,7.87
2018-08-04T07:51:01.017Z,12.78
2018-08-04T07:53:31.132Z,12.75
2018-08-04T07:56:01.277Z,7.37
2018-08-04T07:58:31.404Z,8.10
2018-08-04T08:01:01.504Z,8.10
2018-08-04T08:03:31.627Z,8.28
2018-08-04T08:06:01.703Z,10.73
2018-08-04T08:08:31.773Z,9.93
2018-08-04T08:11:01.943Z,9.28
2018-08-04T08:13:32.016Z,11.73
2018-08-04T08:16:01.546Z,9.30
2018-08-04T08:18:31.576Z,9.98
2018-08-04T08:21:01.764Z,8.93
2018-08-04T08:23:34.135Z,8.88
2018-08-04T08:26:09.533Z,9.33
2018-08-04T08:28:40.663Z,8.68
2018-08-04T08:31:11.101Z,6.85
2018-08-04T08:33:41.933Z,7.07
2018-08-04T08:36:12.468Z,8.93
2018-08-04T08:38:42.618Z,5.92
2018-08-04T08:41:12.802Z,5.78
2018-08-04T08:43:43.543Z,7.25
2018-08-04T09:01:44.854Z,8.80
2018-08-04T09:04:15.074Z,7.53
2018-08-04T09:06:45.650Z,5.60
2018-08-04T09:09:16.158Z,9.43
2018-08-04T09:11:46.670Z,14.80
2018-08-04T09:14:17.195Z,9.97
2018-08-04T09:16:47.698Z,7.80
2018-08-04T09:19:18.129Z,16.43
2018-08-04T09:21:47.983Z,10.93
2018-08-04T09:24:18.082Z,8.10
2018-08-04T09:26:48.354Z,19.93
2018-08-04T09:29:18.522Z,8.93
2018-08-04T09:31:48.682Z,8.47
2018-08-04T09:34:18.918Z,7.60
2018-08-04T09:36:49.093Z,8.30
2018-08-04T09:39:19.318Z,8.53
2018-08-04T09:41:49.474Z,13.00
2018-08-04T09:44:19.662Z,9.83
2018-08-04T09:46:51.967Z,8.80
2018-08-04T09:49:22.138Z,8.60
2018-08-04T09:51:52.332Z,8.13
2018-08-04T09:54:22.483Z,7.57
2018-08-04T09:56:52.702Z,8.60
2018-08-04T09:59:22.925Z,7.90
2018-08-04T10:01:57.149Z,8.30
2018-08-04T10:04:27.297Z,13.57
2018-08-04T10:06:57.453Z,12.57
2018-08-04T10:09:27.593Z,11.20
2018-08-04T10:11:57.757Z,8.63
2018-08-04T10:14:28.098Z,9.33
2018-08-04T10:16:58.286Z,8.60
2018-08-04T10:19:28.647Z,8.63
2018-08-04T10:21:58.214Z,9.47
2018-08-04T10:24:28.309Z,9.67
2018-08-04T10:26:58.538Z,8.53
2018-08-04T10:29:28.706Z,8.90
2018-08-04T10:31:58.893Z,10.67
2018-08-04T10:34:29.070Z,10.63
2018-08-04T10:36:59.298Z,8.30
2018-08-04T10:39:29.454Z,8.67
2018-08-04T10:41:59.940Z,12.30
2018-08-04T10:44:30.082Z,11.17
2018-08-04T10:47:00.404Z,7.20
2018-08-04T10:49:30.640Z,10.10
2018-08-04T10:52:01.319Z,7.80
2018-08-04T10:54:31.485Z,6.83
2018-08-04T10:57:01.700Z,7.10
2018-08-04T10:59:31.866Z,24.63
2018-08-04T11:02:02.494Z,83.77
2018-08-04T11:04:33.019Z,10.63
2018-08-04T11:07:03.221Z,50.12
2018-08-04T11:09:33.449Z,7.80
2018-08-04T11:12:03.663Z,7.12
2018-08-04T11:14:33.849Z,8.40
2018-08-04T11:17:04.023Z,9.25
2018-08-04T11:19:34.368Z,7.03
2018-08-04T11:22:04.759Z,8.55
2018-08-04T11:24:34.957Z,5.50
2018-08-04T11:27:05.211Z,7.03
2018-08-04T11:29:35.373Z,7.22
2018-08-04T11:32:06.072Z,6.35
2018-08-04T11:34:36.661Z,6.92
2018-08-04T11:37:07.218Z,11.83
2018-08-04T11:39:37.618Z,7.62
2018-08-04T11:42:08.358Z,6.40
2018-08-04T11:44:39.749Z,10.85
2018-08-04T11:47:09.652Z,9.13
2018-08-04T11:49:40.077Z,8.80
2018-08-04T11:52:10.657Z,7.25
2018-08-04T11:54:41.266Z,9.73
2018-08-04T11:57:11.503Z,10.90
2018-08-04T11:59:42.006Z,11.08
2018-08-04T12:02:11.947Z,10.32
2018-08-04T12:04:42.321Z,8.45
2018-08-04T12:07:12.540Z,9.78
2018-08-04T12:09:42.760Z,9.48
2018-08-04T12:12:13.285Z,12.28
2018-08-04T12:14:43.875Z,15.53
2018-08-04T12:17:14.607Z,6.95
2018-08-04T12:19:45.213Z,9.73
2018-08-04T12:22:15.924Z,13.20
2018-08-04T12:24:46.460Z,19.12
2018-08-04T12:27:17.322Z,14.05
2018-08-04T12:29:47.930Z,26.35
2018-08-04T12:32:17.653Z,10.10
2018-08-04T12:34:49.380Z,11.40
2018-08-04T12:37:19.921Z,9.40
2018-08-04T12:39:50.403Z,10.40
2018-08-04T12:42:20.929Z,11.05
2018-08-04T12:44:51.708Z,9.68
2018-08-04T12:47:22.145Z,7.58
2018-08-04T12:49:52.595Z,10.25
2018-08-04T12:52:23.013Z,9.20
2018-08-04T12:54:53.570Z,15.00
2018-08-04T12:57:24.114Z,10.65
2018-08-04T12:59:54.634Z,41.95
2018-08-04T13:02:25.150Z,147.50
2018-08-04T13:04:55.575Z,62.05
2018-08-04T13:07:25.900Z,97.40
2018-08-04T13:09:56.306Z,53.95
2018-08-04T13:12:26.898Z,12.63
2018-08-04T13:14:57.490Z,14.65
2018-08-04T13:17:28.123Z,10.65
2018-08-04T13:19:58.290Z,7.67
2018-08-04T13:22:28.868Z,6.92
2018-08-04T13:24:59.430Z,9.58
2018-08-04T13:27:29.953Z,23.65
2018-08-04T13:30:00.352Z,21.62
2018-08-04T13:32:30.862Z,7.28
2018-08-04T13:35:01.315Z,7.10
2018-08-04T13:37:31.959Z,6.90
2018-08-04T13:40:02.590Z,10.23
2018-08-04T13:42:33.326Z,9.80
2018-08-04T13:45:03.546Z,79.72
2018-08-04T13:47:33.800Z,116.53
2018-08-04T13:50:04.214Z,7.85
2018-08-04T13:52:34.516Z,13.10
2018-08-04T13:55:04.994Z,79.53
2018-08-04T13:57:34.620Z,9.23
2018-08-04T14:00:04.977Z,9.05
2018-08-04T14:02:35.243Z,6.90
2018-08-04T14:05:05.644Z,7.72
2018-08-04T14:07:35.868Z,13.10
2018-08-04T14:10:06.024Z,10.43
2018-08-04T14:12:36.205Z,9.00
2018-08-04T14:15:06.575Z,7.20
2018-08-04T14:17:36.810Z,7.03
2018-08-04T14:20:07.111Z,10.58
2018-08-04T14:22:37.411Z,9.55
2018-08-04T14:25:07.602Z,7.37
2018-08-04T14:27:37.824Z,8.60
2018-08-04T14:30:10.194Z,7.67
2018-08-04T14:32:40.425Z,11.18
2018-08-04T14:35:10.667Z,58.90
2018-08-04T14:37:40.914Z,8.63
2018-08-04T14:40:11.133Z,17.15
2018-08-04T14:42:40.776Z,9.23
2018-08-04T14:45:10.908Z,89.85
2018-08-04T14:47:41.189Z,7.85
2018-08-04T14:50:11.517Z,238.52
2018-08-04T14:52:41.735Z,13.28
2018-08-04T14:55:11.961Z,44.35
2018-08-04T14:57:42.177Z,8.08
2018-08-04T15:00:11.771Z,8.35
2018-08-04T15:02:41.857Z,13.90
2018-08-04T15:05:12.099Z,13.78
2018-08-04T15:07:42.269Z,9.65
2018-08-04T15:10:12.515Z,159.75
2018-08-04T15:12:42.673Z,12.03
2018-08-04T15:15:12.830Z,8.35
2018-08-04T15:17:43.362Z,7.62
2018-08-04T15:20:13.768Z,63.25
2018-08-04T15:22:44.192Z,10.40
2018-08-04T15:25:14.593Z,17.10
2018-08-04T15:27:44.773Z,14.90
2018-08-04T15:30:15.365Z,10.35
2018-08-04T15:32:45.550Z,8.88
2018-08-04T15:35:16.135Z,17.65
2018-08-04T15:37:46.314Z,7.42
2018-08-04T15:40:16.626Z,8.15
2018-08-04T15:42:47.190Z,9.48
2018-08-04T15:45:16.921Z,7.28
2018-08-04T15:47:47.379Z,11.35
2018-08-04T15:50:17.970Z,6.60
2018-08-04T15:52:48.141Z,7.05
2018-08-04T15:55:18.305Z,7.30
2018-08-04T15:57:48.559Z,9.53
2018-08-04T16:00:18.719Z,10.72
2018-08-04T16:02:48.983Z,14.58
2018-08-04T16:05:19.449Z,12.35
2018-08-04T16:07:50.055Z,11.97
2018-08-04T16:10:20.228Z,7.83
2018-08-04T16:12:50.650Z,8.93
2018-08-04T16:15:21.455Z,9.33
2018-08-04T16:17:52.957Z,8.05
2018-08-04T16:20:23.402Z,8.70
2018-08-04T16:22:54.048Z,6.92
2018-08-04T16:25:24.255Z,7.80
2018-08-04T16:27:54.538Z,10.25
2018-08-04T16:30:24.881Z,8.68
2018-08-04T16:32:55.088Z,8.68
2018-08-04T16:35:25.304Z,8.10
2018-08-04T16:37:55.057Z,7.72
2018-08-04T16:40:30.037Z,12.85
2018-08-04T16:43:00.757Z,8.70
2018-08-04T16:47:02.490Z,14.15
2018-08-04T16:49:32.977Z,75.17
2018-08-04T16:52:02.711Z,64.90
2018-08-04T16:54:33.217Z,133.35
2018-08-04T16:57:03.170Z,118.00
2018-08-04T16:59:33.587Z,63.38
2018-08-04T17:02:04.205Z,67.03
2018-08-04T17:04:34.620Z,95.22
2018-08-04T17:07:04.476Z,82.92
2018-08-04T17:09:35.102Z,95.20
2018-08-04T17:12:05.646Z,121.28
2018-08-04T17:14:36.122Z,148.15
2018-08-04T17:17:05.705Z,92.60
2018-08-04T17:19:35.761Z,133.40
2018-08-04T17:22:05.967Z,83.45
2018-08-04T17:24:35.505Z,94.10
2018-08-04T17:27:05.831Z,124.85
2018-08-04T17:29:36.114Z,115.33
2018-08-04T17:32:06.762Z,83.20
2018-08-04T17:34:37.293Z,79.87
2018-08-04T17:37:07.550Z,104.30
2018-08-04T17:39:37.819Z,96.37
2018-08-04T17:42:07.993Z,68.60
2018-08-04T17:44:38.274Z,64.00
2018-08-04T17:47:10.042Z,57.03
2018-08-04T17:49:40.253Z,55.33
2018-08-04T17:52:09.826Z,33.97
2018-08-04T17:54:39.958Z,35.03
2018-08-04T17:57:10.788Z,46.20
2018-08-04T17:59:40.630Z,35.60
2018-08-04T18:02:11.174Z,29.67
2018-08-04T18:04:41.793Z,34.23
2018-08-04T18:07:12.346Z,112.03
2018-08-04T18:09:42.995Z,100.10
2018-08-04T18:12:13.630Z,66.47
2018-08-04T18:14:44.176Z,66.37
2018-08-04T18:17:14.525Z,69.40
2018-08-04T18:19:44.413Z,77.57
2018-08-04T18:22:14.818Z,69.03
2018-08-04T18:24:45.300Z,33.73
2018-08-04T18:27:15.141Z,38.17
2018-08-04T18:29:45.571Z,45.93
2018-08-04T18:32:16.099Z,53.50
2018-08-04T18:34:46.713Z,44.27
2018-08-04T18:37:17.362Z,45.77
2018-08-04T18:39:48.000Z,39.83
2018-08-04T18:42:18.773Z,46.77
2018-08-04T18:44:49.298Z,34.07
2018-08-04T18:47:19.686Z,35.27
2018-08-04T18:49:50.309Z,42.63
2018-08-04T18:52:20.940Z,30.23
2018-08-04T18:54:51.478Z,32.73
2018-08-04T18:57:22.056Z,40.77
2018-08-04T18:59:52.854Z,50.27
2018-08-04T19:02:23.458Z,123.37
2018-08-04T19:04:53.977Z,198.83
2018-08-04T19:07:24.523Z,113.07
2018-08-04T19:09:55.159Z,43.50
2018-08-04T19:12:25.740Z,52.60
2018-08-04T19:14:56.305Z,44.60
2018-08-04T19:17:26.920Z,45.80
2018-08-04T19:19:56.814Z,51.53
2018-08-04T19:22:26.480Z,42.00
2018-08-04T19:24:56.949Z,46.80
2018-08-04T19:27:27.523Z,42.93
2018-08-04T19:29:58.130Z,33.27
2018-08-04T19:32:28.666Z,27.90
2018-08-04T19:34:59.292Z,39.00
2018-08-04T19:37:29.808Z,34.10
2018-08-04T19:39:59.612Z,34.73
2018-08-04T19:42:29.290Z,38.23
2018-08-04T19:44:59.829Z,34.90
2018-08-04T19:47:30.327Z,28.77
2018-08-04T19:50:00.964Z,19.27
2018-08-04T19:52:31.532Z,14.77
2018-08-04T19:55:02.071Z,16.23
2018-08-04T19:57:32.219Z,22.67
2018-08-04T20:00:02.394Z,17.87
2018-08-04T20:02:32.604Z,12.50
2018-08-04T20:05:03.204Z,14.17
2018-08-04T20:07:33.613Z,21.23
2018-08-04T20:10:03.877Z,27.73
2018-08-04T20:12:34.490Z,26.77
2018-08-04T20:15:05.242Z,21.83
2018-08-04T20:17:35.806Z,20.67
2018-08-04T20:20:05.488Z,23.40
2018-08-04T20:22:35.828Z,20.03
2018-08-04T20:25:07.071Z,18.13
2018-08-04T20:27:37.325Z,21.93
2018-08-04T20:30:07.875Z,19.00
2018-08-04T20:32:38.485Z,17.00
2018-08-04T20:35:08.376Z,12.60
2018-08-04T20:37:38.456Z,20.87
2018-08-04T20:40:08.734Z,21.07
2018-08-04T20:42:39.189Z,26.63
2018-08-04T20:45:09.703Z,20.97
2018-08-04T20:47:39.931Z,24.20
2018-08-04T20:50:10.153Z,23.47
2018-08-04T20:52:40.339Z,23.23
2018-08-04T20:55:10.538Z,23.23
2018-08-04T20:57:40.756Z,19.73
2018-08-04T21:00:11.606Z,20.23
2018-08-04T21:02:42.177Z,19.83
2018-08-04T21:05:12.938Z,17.20
2018-08-04T21:07:43.428Z,22.07
2018-08-04T21:10:13.922Z,16.43
2018-08-04T21:12:44.147Z,20.10
2018-08-04T21:15:14.359Z,16.00
2018-08-04T21:17:44.557Z,16.20
2018-08-04T21:20:14.785Z,18.13
2018-08-04T21:22:44.954Z,18.77
2018-08-04T21:25:14.673Z,20.13
2018-08-04T21:27:44.786Z,18.50
2018-08-04T21:30:15.062Z,18.83
2018-08-04T21:32:45.194Z,20.33
2018-08-04T21:35:15.687Z,15.07
2018-08-04T21:37:46.190Z,12.23
2018-08-04T21:40:16.613Z,18.40
2018-08-04T21:42:46.324Z,14.97
2018-08-04T21:45:16.570Z,16.10
2018-08-04T21:47:47.182Z,16.97
2018-08-04T21:50:17.710Z,19.23
2018-08-04T21:52:54.661Z,19.87
2018-08-04T21:55:25.384Z,21.10
2018-08-04T21:57:55.733Z,21.43
2018-08-04T22:00:26.340Z,20.00
2018-08-04T22:03:00.688Z,17.23
2018-08-04T22:05:31.681Z,18.10
2018-08-04T22:08:13.500Z,17.30
2018-08-04T22:10:44.117Z,16.57
2018-08-04T22:13:14.718Z,15.57
2018-08-04T22:15:45.127Z,16.43
2018-08-04T22:18:15.650Z,16.07
2018-08-04T22:20:46.157Z,18.83
2018-08-04T22:23:16.728Z,20.27
2018-08-04T22:25:47.309Z,18.03
2018-08-04T22:28:17.796Z,18.87
2018-08-04T22:30:48.295Z,16.20
2018-08-04T22:33:18.757Z,19.70
2018-08-04T22:35:49.235Z,17.77
2018-08-04T22:38:19.690Z,22.70
2018-08-04T22:40:50.302Z,21.53
2018-08-04T22:43:20.789Z,18.77
2018-08-04T22:46:16.726Z,22.03
2018-08-04T22:48:48.497Z,21.40
2018-08-04T22:51:25.359Z,23.17
2018-08-04T22:53:55.785Z,19.87
2018-08-04T22:56:26.589Z,17.93
2018-08-04T22:58:57.204Z,21.80
2018-08-04T23:01:27.765Z,17.73
2018-08-04T23:03:58.402Z,20.93
2018-08-04T23:06:29.462Z,17.77
2018-08-04T23:09:00.067Z,14.17
2018-08-04T23:11:30.598Z,15.10
2018-08-04T23:14:01.124Z,16.63
2018-08-04T23:16:31.586Z,14.50
2018-08-04T23:19:02.162Z,13.33
2018-08-04T23:21:32.376Z,13.70
2018-08-04T23:24:02.037Z,16.23
2018-08-04T23:26:32.660Z,13.93
2018-08-04T23:29:03.240Z,13.30
2018-08-04T23:31:33.802Z,15.77
2018-08-04T23:34:04.297Z,14.57
2018-08-04T23:36:34.885Z,14.90
2018-08-04T23:39:06.532Z,14.87
2018-08-04T23:41:37.179Z,15.07
2018-08-04T23:44:07.574Z,13.47
2018-08-04T23:46:38.137Z,14.17
2018-08-04T23:49:08.763Z,14.27
2018-08-04T23:51:39.293Z,14.83
2018-08-04T23:54:09.760Z,17.20
2018-08-04T23:56:40.337Z,14.50
2018-08-04T23:59:10.666Z,15.90
